createdAt,value
2022-08-18T00:01:14.792Z,22.10
2022-08-18T00:09:01.234Z,21.60
2022-08-18T00:11:41.605Z,21.80
2022-08-18T00:14:22.624Z,21.70
2022-08-18T00:16:56.641Z,21.60
2022-08-18T00:19:46.802Z,21.70
2022-08-18T00:22:16.427Z,21.70
2022-08-18T00:24:49.081Z,21.60
2022-08-18T00:27:23.221Z,21.60
2022-08-18T00:29:53.801Z,21.40
2022-08-18T00:32:42.434Z,21.50
2022-08-18T00:35:28.983Z,22.80
2022-08-18T00:38:00.635Z,21.30
2022-08-18T00:40:52.117Z,21.50
2022-08-18T00:43:35.678Z,21.40
2022-08-18T00:51:13.246Z,21.40
2022-08-18T00:56:27.266Z,21.20
2022-08-18T01:04:27.155Z,21.00
2022-08-18T01:07:04.667Z,21.30
2022-08-18T01:17:35.226Z,21.80
2022-08-18T01:30:56.180Z,21.50
2022-08-18T01:43:50.363Z,21.20
2022-08-18T02:07:12.816Z,21.20
2022-08-18T02:09:43.733Z,21.10
2022-08-18T02:17:13.136Z,21.20
2022-08-18T02:19:44.901Z,21.20
2022-08-18T02:22:18.274Z,21.20
2022-08-18T02:27:16.308Z,21.10
2022-08-18T02:39:38.084Z,21.10
2022-08-18T02:42:09.251Z,19.50
2022-08-18T02:47:04.610Z,21.90
2022-08-18T02:54:26.976Z,21.00
2022-08-18T02:59:26.773Z,20.70
2022-08-18T03:01:56.976Z,20.90
2022-08-18T03:04:30.439Z,20.80
2022-08-18T03:11:58.915Z,20.80
2022-08-18T03:14:27.260Z,20.90
2022-08-18T03:19:28.973Z,20.80
2022-08-18T03:36:57.471Z,20.70
2022-08-18T03:44:37.167Z,20.80
2022-08-18T03:47:09.588Z,21.20
2022-08-18T03:49:39.014Z,20.80
2022-08-18T03:52:10.291Z,21.00
2022-08-18T03:57:11.120Z,20.90
2022-08-18T04:07:14.574Z,20.90
2022-08-18T04:09:43.908Z,22.20
2022-08-18T04:12:16.732Z,21.20
2022-08-18T04:14:50.140Z,21.20
2022-08-18T04:17:25.929Z,21.10
2022-08-18T04:19:55.462Z,21.40
2022-08-18T04:27:22.929Z,22.50
2022-08-18T04:39:45.104Z,24.40
2022-08-18T04:55:11.771Z,25.80
2022-08-18T05:00:12.541Z,25.30
2022-08-18T05:05:08.804Z,27.90
2022-08-18T05:07:36.337Z,26.40
2022-08-18T05:10:05.028Z,27.30
2022-08-18T05:20:01.455Z,29.40
2022-08-18T05:25:00.524Z,28.90
2022-08-18T05:27:40.411Z,31.30
2022-08-18T05:30:09.919Z,31.50
2022-08-18T05:32:48.520Z,31.00
2022-08-18T05:35:36.519Z,30.40
2022-08-18T05:38:24.686Z,30.90
2022-08-18T05:41:08.192Z,31.40
2022-08-18T05:43:51.077Z,31.00
2022-08-18T05:51:34.177Z,32.10
2022-08-18T05:54:23.613Z,31.40
2022-08-18T05:56:56.113Z,33.10
2022-08-18T05:59:40.530Z,33.40
2022-08-18T06:02:18.449Z,30.50
2022-08-18T06:05:00.139Z,34.80
2022-08-18T06:07:41.010Z,33.10
2022-08-18T06:10:09.902Z,32.60
2022-08-18T06:12:54.231Z,32.00
2022-08-18T06:15:33.390Z,31.70
2022-08-18T06:18:47.024Z,33.10
2022-08-18T06:21:39.968Z,34.50
2022-08-18T06:24:12.143Z,32.60
2022-08-18T06:27:12.045Z,36.30
2022-08-18T06:30:07.718Z,35.10
2022-08-18T06:32:53.125Z,33.50
2022-08-18T06:35:52.050Z,34.90
2022-08-18T06:39:03.351Z,35.20
2022-08-18T06:41:48.768Z,36.30
2022-08-18T06:44:29.685Z,36.50
2022-08-18T06:47:32.830Z,36.30
2022-08-18T06:50:08.394Z,36.90
2022-08-18T06:52:40.211Z,36.90
2022-08-18T06:55:18.119Z,38.20
2022-08-18T06:57:58.508Z,37.10
2022-08-18T07:00:32.456Z,37.30
2022-08-18T07:03:17.920Z,38.40
2022-08-18T07:06:08.358Z,37.00
2022-08-18T07:08:46.214Z,39.80
2022-08-18T07:11:33.435Z,40.60
2022-08-18T07:14:23.242Z,40.30
2022-08-18T07:17:00.076Z,40.70
2022-08-18T07:19:32.211Z,40.60
2022-08-18T07:22:05.017Z,40.20
2022-08-18T07:24:42.837Z,40.90
2022-08-18T07:27:45.097Z,40.20
2022-08-18T07:30:19.379Z,40.90
2022-08-18T07:33:27.358Z,40.30
2022-08-18T07:36:07.207Z,40.20
2022-08-18T07:38:53.474Z,40.30
2022-08-18T07:41:57.444Z,40.90
2022-08-18T07:44:44.378Z,41.60
2022-08-18T07:47:27.190Z,41.60
2022-08-18T07:50:18.317Z,40.40
2022-08-18T07:53:03.627Z,40.70
2022-08-18T07:55:36.462Z,41.40
2022-08-18T07:58:30.907Z,43.60
2022-08-18T08:01:23.671Z,42.60
2022-08-18T08:04:29.369Z,41.90
2022-08-18T08:07:26.557Z,43.70
2022-08-18T08:10:45.064Z,41.80
2022-08-18T08:13:56.374Z,42.20
2022-08-18T08:16:57.875Z,42.20
2022-08-18T08:20:04.197Z,41.40
2022-08-18T08:22:38.859Z,43.40
2022-08-18T08:25:45.019Z,43.80
2022-08-18T08:28:40.670Z,43.60
2022-08-18T08:31:33.140Z,44.50
2022-08-18T08:34:14.225Z,43.80
2022-08-18T08:36:46.742Z,44.40
2022-08-18T08:39:45.349Z,42.20
2022-08-18T08:42:51.065Z,45.10
2022-08-18T08:45:33.440Z,45.80
2022-08-18T08:48:17.944Z,44.50
2022-08-18T08:50:50.974Z,45.60
2022-08-18T08:53:38.678Z,44.90
2022-08-18T08:56:16.770Z,45.80
2022-08-18T08:58:52.768Z,44.50
2022-08-18T09:02:02.122Z,42.20
2022-08-18T09:05:08.842Z,44.20
2022-08-18T09:08:13.523Z,45.50
2022-08-18T09:10:46.330Z,45.50
2022-08-18T09:13:52.063Z,43.30
2022-08-18T09:16:36.873Z,42.90
2022-08-18T09:19:31.019Z,42.70
2022-08-18T09:22:20.114Z,45.40
2022-08-18T09:24:53.266Z,44.70
2022-08-18T09:27:23.395Z,46.70
2022-08-18T09:29:59.174Z,45.40
2022-08-18T09:32:26.276Z,46.60
2022-08-18T09:35:23.806Z,45.00
2022-08-18T09:38:21.362Z,44.50
2022-08-18T09:41:22.971Z,46.30
2022-08-18T09:44:21.282Z,42.50
2022-08-18T09:47:02.728Z,42.40
2022-08-18T09:49:30.584Z,42.30
2022-08-18T09:52:26.989Z,42.00
2022-08-18T09:55:06.402Z,43.70
2022-08-18T09:57:42.317Z,45.40
2022-08-18T10:00:14.609Z,44.10
2022-08-18T10:02:45.660Z,44.90
2022-08-18T10:05:20.064Z,44.00
2022-08-18T10:07:48.946Z,43.90
2022-08-18T10:13:52.509Z,41.70
2022-08-18T10:17:21.795Z,41.60
2022-08-18T10:20:29.469Z,42.20
2022-08-18T10:22:57.515Z,44.50
2022-08-18T10:25:47.293Z,41.80
2022-08-18T10:28:53.391Z,41.70
2022-08-18T10:31:24.153Z,41.50
2022-08-18T10:34:17.124Z,41.50
2022-08-18T10:37:00.568Z,41.90
2022-08-18T10:39:41.185Z,41.60
2022-08-18T10:42:37.431Z,41.80
2022-08-18T10:45:30.409Z,43.60
2022-08-18T10:48:26.772Z,41.70
2022-08-18T10:51:37.784Z,41.30
2022-08-18T10:54:54.019Z,40.50
2022-08-18T10:57:52.704Z,41.50
2022-08-18T11:00:22.650Z,43.80
2022-08-18T11:06:14.469Z,43.20
2022-08-18T11:11:52.588Z,42.60
2022-08-18T11:14:41.990Z,40.40
2022-08-18T11:17:42.860Z,43.40
2022-08-18T11:20:18.166Z,44.10
2022-08-18T11:23:00.439Z,40.80
2022-08-18T11:25:34.837Z,41.50
2022-08-18T11:28:03.386Z,43.10
2022-08-18T11:30:40.984Z,40.50
2022-08-18T11:33:23.014Z,40.20
2022-08-18T11:35:58.497Z,43.80
2022-08-18T11:38:29.550Z,41.20
2022-08-18T11:41:20.474Z,39.90
2022-08-18T11:43:50.569Z,41.00
2022-08-18T11:46:28.190Z,40.60
2022-08-18T11:49:33.404Z,43.20
2022-08-18T11:52:19.798Z,41.30
2022-08-18T11:55:16.760Z,41.70
2022-08-18T11:57:58.986Z,41.00
2022-08-18T12:00:44.492Z,40.80
2022-08-18T12:03:17.409Z,41.60
2022-08-18T12:05:55.723Z,41.60
2022-08-18T12:11:27.375Z,41.00
2022-08-18T12:14:29.688Z,41.10
2022-08-18T12:19:48.313Z,40.60
2022-08-18T12:22:23.899Z,40.50
2022-08-18T12:24:52.474Z,40.80
2022-08-18T12:27:25.411Z,41.10
2022-08-18T12:32:46.855Z,40.30
2022-08-18T12:35:22.407Z,40.00
2022-08-18T12:38:13.231Z,40.00
2022-08-18T12:40:38.158Z,39.40
2022-08-18T12:48:22.691Z,40.10
2022-08-18T12:50:55.544Z,39.80
2022-08-18T12:56:31.110Z,40.40
2022-08-18T12:59:04.302Z,40.40
2022-08-18T13:01:34.209Z,39.90
2022-08-18T13:04:13.107Z,39.50
2022-08-18T13:07:01.093Z,40.20
2022-08-18T13:09:53.223Z,39.80
2022-08-18T13:14:52.583Z,39.40
2022-08-18T13:20:05.742Z,36.20
2022-08-18T13:22:33.481Z,38.70
2022-08-18T13:25:07.506Z,38.40
2022-08-18T13:27:37.370Z,38.90
2022-08-18T13:30:29.198Z,38.30
2022-08-18T13:40:54.435Z,38.50
2022-08-18T13:43:30.648Z,38.60
2022-08-18T13:45:58.523Z,37.30
2022-08-18T13:48:26.104Z,37.50
2022-08-18T13:50:56.664Z,37.50
2022-08-18T14:01:39.816Z,37.50
2022-08-18T14:03:50.865Z,38.50
2022-08-18T14:06:22.796Z,37.10
2022-08-18T14:08:53.834Z,36.90
2022-08-18T14:11:32.796Z,37.10
2022-08-18T14:22:11.162Z,36.50
2022-08-18T14:25:00.782Z,36.40
2022-08-18T14:27:35.791Z,36.60
2022-08-18T14:30:11.260Z,36.30
2022-08-18T14:35:33.798Z,36.50
2022-08-18T14:38:10.033Z,36.80
2022-08-18T14:40:41.686Z,36.20
2022-08-18T14:43:14.599Z,37.70
2022-08-18T14:48:27.471Z,37.10
2022-08-18T14:50:56.734Z,35.90
2022-08-18T14:53:28.873Z,36.00
2022-08-18T14:55:57.670Z,35.90
2022-08-18T14:58:30.803Z,35.80
2022-08-18T15:01:17.763Z,35.80
2022-08-18T15:11:14.373Z,34.70
2022-08-18T15:13:45.303Z,35.70
2022-08-18T15:16:16.231Z,34.20
2022-08-18T15:18:45.664Z,37.10
2022-08-18T15:21:34.995Z,35.70
2022-08-18T15:26:57.709Z,35.30
2022-08-18T15:32:06.150Z,35.30
2022-08-18T15:34:46.455Z,33.60
2022-08-18T15:37:19.389Z,35.30
2022-08-18T15:42:24.159Z,35.10
2022-08-18T15:44:53.683Z,34.60
2022-08-18T15:47:25.336Z,34.00
2022-08-18T16:00:12.065Z,33.70
2022-08-18T16:02:44.589Z,34.40
2022-08-18T16:05:17.988Z,33.30
2022-08-18T16:10:19.819Z,34.30
2022-08-18T16:12:47.981Z,34.70
2022-08-18T16:15:22.037Z,34.30
2022-08-18T16:17:53.083Z,34.30
2022-08-18T16:20:26.769Z,34.40
2022-08-18T16:30:23.379Z,34.10
2022-08-18T16:32:52.365Z,34.00
2022-08-18T16:35:22.090Z,33.90
2022-08-18T16:37:51.252Z,33.50
2022-08-18T16:40:21.136Z,33.90
2022-08-18T16:45:23.029Z,33.20
2022-08-18T16:58:02.920Z,33.00
2022-08-18T17:00:54.779Z,32.60
2022-08-18T17:03:42.719Z,32.70
2022-08-18T17:06:15.242Z,32.40
2022-08-18T17:08:44.246Z,32.40
2022-08-18T17:11:17.360Z,32.90
2022-08-18T17:13:46.833Z,32.50
2022-08-18T17:16:15.726Z,32.60
2022-08-18T17:18:44.324Z,32.10
2022-08-18T17:21:17.966Z,32.00
2022-08-18T17:26:56.847Z,32.40
2022-08-18T17:30:01.319Z,29.80
2022-08-18T17:32:31.887Z,30.80
2022-08-18T17:35:13.038Z,29.80
2022-08-18T17:37:53.199Z,31.60
2022-08-18T17:40:48.098Z,32.20
2022-08-18T17:43:26.709Z,32.40
2022-08-18T17:46:27.527Z,31.40
2022-08-18T17:49:16.593Z,32.70
2022-08-18T17:51:52.758Z,31.50
2022-08-18T17:54:37.056Z,32.60
2022-08-18T17:57:10.989Z,32.60
2022-08-18T17:59:54.117Z,29.90
2022-08-18T18:02:29.316Z,29.40
2022-08-18T18:05:09.925Z,30.60
2022-08-18T18:10:51.061Z,30.20
2022-08-18T18:16:35.198Z,30.40
2022-08-18T18:19:07.894Z,30.30
2022-08-18T18:21:55.414Z,30.10
2022-08-18T18:24:32.750Z,30.00
2022-08-18T18:29:38.044Z,29.90
2022-08-18T18:32:28.244Z,29.30
2022-08-18T18:35:30.827Z,29.80
2022-08-18T18:38:23.948Z,29.70
2022-08-18T18:41:05.845Z,29.70
2022-08-18T18:43:44.756Z,29.50
2022-08-18T18:46:35.382Z,28.50
2022-08-18T18:52:19.104Z,29.20
2022-08-18T18:57:48.622Z,28.40
2022-08-18T19:00:35.463Z,28.90
2022-08-18T19:03:25.867Z,28.70
2022-08-18T19:06:26.988Z,28.80
2022-08-18T19:09:17.164Z,28.40
2022-08-18T19:12:03.653Z,28.10
2022-08-18T19:14:57.644Z,28.20
2022-08-18T19:18:00.880Z,28.60
2022-08-18T19:22:02.257Z,28.10
2022-08-18T19:23:45.141Z,28.40
2022-08-18T19:26:27.603Z,27.90
2022-08-18T19:29:13.658Z,28.40
2022-08-18T19:32:15.799Z,29.00
2022-08-18T19:34:52.371Z,27.70
2022-08-18T19:37:46.270Z,27.00
2022-08-18T19:40:31.948Z,27.30
2022-08-18T19:43:29.933Z,27.60
2022-08-18T19:51:19.984Z,27.30
2022-08-18T19:56:34.834Z,27.70
2022-08-18T19:59:35.166Z,26.60
2022-08-18T20:03:04.047Z,25.50
2022-08-18T20:09:07.301Z,27.30
2022-08-18T20:14:17.262Z,28.10
2022-08-18T20:17:14.702Z,26.60
2022-08-18T20:20:04.521Z,24.80
2022-08-18T20:22:42.332Z,25.90
2022-08-18T20:28:00.667Z,26.00
2022-08-18T20:31:04.897Z,26.50
2022-08-18T20:33:47.004Z,26.10
2022-08-18T20:36:30.548Z,26.50
2022-08-18T20:39:01.310Z,26.30
2022-08-18T20:41:47.463Z,26.40
2022-08-18T20:44:30.386Z,25.90
2022-08-18T20:47:43.012Z,26.90
2022-08-18T20:50:37.229Z,25.40
2022-08-18T20:53:50.279Z,25.00
2022-08-18T20:56:43.796Z,27.70
2022-08-18T20:59:20.626Z,25.60
2022-08-18T21:02:05.804Z,25.00
2022-08-18T21:04:47.567Z,25.60
2022-08-18T21:07:37.925Z,26.90
2022-08-18T21:12:52.600Z,26.30
2022-08-18T21:15:24.521Z,25.60
2022-08-18T21:18:24.154Z,25.60
2022-08-18T21:20:55.647Z,24.60
2022-08-18T21:23:39.478Z,25.60
2022-08-18T21:26:13.191Z,24.20
2022-08-18T21:28:45.527Z,26.00
2022-08-18T21:31:43.504Z,26.20
2022-08-18T21:34:43.026Z,24.60
2022-08-18T21:37:15.836Z,25.00
2022-08-18T21:39:58.433Z,25.40
2022-08-18T21:42:40.546Z,26.70
2022-08-18T21:45:19.923Z,25.50
2022-08-18T21:47:58.945Z,25.20
2022-08-18T21:50:30.362Z,25.70
2022-08-18T21:53:05.916Z,25.80
2022-08-18T21:56:01.521Z,26.60
2022-08-18T21:58:42.253Z,25.90
2022-08-18T22:01:23.708Z,26.20
2022-08-18T22:03:59.677Z,25.50
2022-08-18T22:06:41.421Z,25.70
2022-08-18T22:09:29.841Z,25.60
2022-08-18T22:12:46.792Z,25.20
2022-08-18T22:15:43.024Z,25.90
2022-08-18T22:18:19.139Z,25.40
2022-08-18T22:20:47.567Z,25.60
2022-08-18T22:23:32.956Z,25.80
2022-08-18T22:26:27.777Z,25.60
2022-08-18T22:29:06.680Z,26.00
2022-08-18T22:31:44.950Z,25.60
2022-08-18T22:34:28.046Z,25.10
2022-08-18T22:37:01.825Z,25.60
2022-08-18T22:39:33.666Z,24.80
2022-08-18T22:42:02.711Z,25.30
2022-08-18T22:44:30.619Z,24.50
2022-08-18T22:49:26.228Z,25.90
2022-08-18T22:51:55.705Z,25.10
2022-08-18T22:54:25.412Z,25.40
2022-08-18T22:56:56.533Z,24.80
2022-08-18T22:59:26.999Z,25.70
2022-08-18T23:04:25.582Z,25.30
2022-08-18T23:06:54.476Z,25.30
2022-08-18T23:09:27.183Z,25.60
2022-08-18T23:11:58.017Z,24.60
2022-08-18T23:14:25.859Z,26.10
2022-08-18T23:16:53.548Z,23.90
2022-08-18T23:19:22.255Z,24.70
2022-08-18T23:24:20.643Z,23.70
2022-08-18T23:29:19.882Z,23.70
2022-08-18T23:34:18.897Z,24.40
2022-08-18T23:36:56.371Z,24.00
2022-08-18T23:39:26.214Z,24.40
2022-08-18T23:41:54.061Z,24.00
2022-08-18T23:44:27.335Z,23.90
2022-08-18T23:46:56.363Z,24.20
2022-08-18T23:49:24.238Z,23.50
2022-08-18T23:51:55.441Z,24.10
2022-08-18T23:54:27.902Z,23.90
2022-08-18T23:59:25.937Z,24.30
